Terminal Aerodrome Forecast
Issued by NWS

Home | Current Version | Previous Version | Text Only | Print | Product List | Glossary On
Versions: 1 2 3 4 5 6 7 8 9 10 11 12 13 14 15 16 17 18 19 20 21 22 23 24 25 26 27 28 29 30 31 32 33 34 35 36 37 38 39 40 41
000
FTAK31 PANC 290541
TAFADL
TAF
PADL 290541Z 2906/3006 23010G15KT P6SM VCSH SCT030 BKN060
     FM291200 VRB04KT P6SM BKN060
     FM292100 03007KT P6SM BKN080
      AMD LTD TO CLD VIS AND WIND TIL 291600=

USA.gov is the U.S. government's official web portal to all federal, state and local government web resources and services.